createdAt,value
2019-03-09T00:01:16.419Z,3.30
2019-03-09T00:03:43.948Z,3.67
2019-03-09T00:06:13.442Z,3.80
2019-03-09T00:08:40.740Z,3.50
2019-03-09T00:11:27.754Z,3.40
2019-03-09T00:13:55.144Z,3.83
2019-03-09T00:16:22.577Z,3.97
2019-03-09T00:18:50.073Z,4.77
2019-03-09T00:21:17.543Z,3.80
2019-03-09T00:24:03.150Z,4.07
2019-03-09T00:26:59.448Z,4.00
2019-03-09T00:29:37.274Z,4.20
2019-03-09T00:32:25.619Z,3.87
2019-03-09T00:34:52.980Z,4.20
2019-03-09T00:37:39.860Z,4.23
2019-03-09T00:40:08.954Z,3.60
2019-03-09T00:42:36.739Z,4.30
2019-03-09T00:45:04.359Z,3.80
2019-03-09T00:47:31.802Z,3.60
2019-03-09T00:49:59.203Z,3.70
2019-03-09T00:52:26.617Z,4.33
2019-03-09T00:54:53.951Z,4.20
2019-03-09T00:57:21.684Z,4.30
2019-03-09T00:59:56.579Z,3.80
2019-03-09T01:02:24.055Z,3.43
2019-03-09T01:04:51.379Z,3.47
2019-03-09T01:07:18.815Z,4.13
2019-03-09T01:09:46.189Z,4.13
2019-03-09T01:12:13.621Z,4.53
2019-03-09T01:15:00.512Z,3.90
2019-03-09T01:17:27.897Z,3.60
2019-03-09T01:19:55.371Z,4.20
2019-03-09T01:22:22.669Z,2.77
2019-03-09T01:24:50.018Z,3.10
2019-03-09T01:27:17.443Z,3.97
2019-03-09T01:29:44.763Z,2.80
2019-03-09T01:32:12.147Z,4.73
2019-03-09T01:34:58.944Z,6.47
2019-03-09T01:37:39.422Z,4.37
2019-03-09T01:40:20.088Z,4.20
2019-03-09T01:42:47.478Z,4.57
2019-03-09T01:45:14.787Z,4.43
2019-03-09T01:47:42.159Z,4.37
2019-03-09T01:50:09.531Z,3.53
2019-03-09T01:52:36.942Z,4.53
2019-03-09T01:55:04.818Z,4.03
2019-03-09T01:57:51.611Z,3.77
2019-03-09T02:00:19.047Z,4.20
2019-03-09T02:02:46.368Z,3.57
2019-03-09T02:05:14.115Z,3.17
2019-03-09T02:08:00.941Z,3.77
2019-03-09T02:10:28.337Z,2.93
2019-03-09T02:12:55.650Z,3.13
2019-03-09T02:15:23.105Z,3.10
2019-03-09T02:17:50.432Z,3.53
2019-03-09T02:20:17.809Z,3.17
2019-03-09T02:23:04.677Z,2.40
2019-03-09T02:25:31.979Z,2.80
2019-03-09T02:28:18.779Z,2.40
2019-03-09T02:30:46.166Z,3.03
2019-03-09T02:33:13.667Z,3.17
2019-03-09T02:35:41.056Z,3.10
2019-03-09T02:39:08.260Z,2.37
2019-03-09T02:41:35.671Z,2.80
2019-03-09T02:44:03.061Z,2.53
2019-03-09T02:46:30.417Z,1.83
2019-03-09T02:48:57.766Z,2.37
2019-03-09T02:51:25.268Z,1.87
2019-03-09T02:53:52.721Z,2.50
2019-03-09T02:56:20.151Z,1.80
2019-03-09T02:58:47.619Z,2.20
2019-03-09T03:01:43.685Z,2.13
2019-03-09T03:04:11.145Z,2.10
2019-03-09T03:06:38.596Z,2.73
2019-03-09T03:09:06.048Z,3.30
2019-03-09T03:11:33.532Z,2.30
2019-03-09T03:14:00.929Z,2.57
2019-03-09T03:16:28.421Z,2.60
2019-03-09T03:18:55.903Z,2.43
2019-03-09T03:21:23.325Z,1.90
2019-03-09T03:23:50.731Z,2.57
2019-03-09T03:26:18.106Z,2.40
2019-03-09T03:28:45.447Z,2.93
2019-03-09T03:31:12.901Z,3.00
2019-03-09T03:33:40.379Z,2.50
2019-03-09T03:36:07.785Z,2.20
2019-03-09T03:38:35.135Z,2.10
2019-03-09T03:41:02.619Z,1.90
2019-03-09T03:43:49.488Z,2.13
2019-03-09T03:46:17.052Z,2.17
2019-03-09T03:48:44.354Z,1.60
2019-03-09T03:51:11.775Z,2.07
2019-03-09T03:53:39.299Z,2.03
2019-03-09T03:56:06.754Z,2.00
2019-03-09T03:58:34.316Z,2.40
2019-03-09T04:01:01.783Z,1.97
2019-03-09T04:03:29.157Z,2.10
2019-03-09T04:05:56.582Z,1.80
2019-03-09T04:08:24.019Z,1.53
2019-03-09T04:11:10.968Z,1.90
2019-03-09T04:13:38.287Z,2.07
2019-03-09T04:16:05.624Z,2.03
2019-03-09T04:18:33.181Z,1.63
2019-03-09T04:21:20.104Z,1.77
2019-03-09T04:23:47.589Z,2.13
2019-03-09T04:26:15.019Z,1.67
2019-03-09T04:28:42.350Z,2.20
2019-03-09T04:31:09.672Z,2.03
2019-03-09T04:33:36.983Z,2.47
2019-03-09T04:36:04.349Z,2.50
2019-03-09T04:38:31.900Z,1.97
2019-03-09T04:41:18.771Z,1.90
2019-03-09T04:46:30.843Z,1.80
2019-03-09T04:48:58.225Z,1.70
2019-03-09T04:51:25.546Z,2.87
2019-03-09T04:53:53.038Z,2.20
2019-03-09T04:56:39.825Z,2.43
2019-03-09T04:59:07.674Z,1.53
2019-03-09T05:01:35.089Z,1.67
2019-03-09T05:04:49.917Z,2.30
2019-03-09T05:08:02.851Z,1.93
2019-03-09T05:10:55.025Z,2.33
2019-03-09T05:13:41.207Z,1.80
2019-03-09T05:16:08.639Z,1.80
2019-03-09T05:18:36.110Z,2.03
2019-03-09T05:21:03.411Z,2.90
2019-03-09T05:23:50.206Z,2.13
2019-03-09T05:26:17.516Z,3.43
2019-03-09T05:28:44.905Z,3.17
2019-03-09T05:31:12.253Z,2.27
2019-03-09T05:33:39.611Z,2.20
2019-03-09T05:36:07.135Z,1.87
2019-03-09T05:38:34.533Z,2.83
2019-03-09T05:41:01.983Z,2.23
2019-03-09T05:43:29.422Z,1.90
2019-03-09T05:45:56.873Z,2.47
2019-03-09T05:48:24.295Z,2.13
2019-03-09T05:50:51.733Z,2.17
2019-03-09T05:53:21.034Z,2.80
2019-03-09T05:56:07.988Z,2.90
2019-03-09T05:58:35.455Z,3.23
2019-03-09T06:01:02.879Z,2.70
2019-03-09T06:03:49.889Z,3.23
2019-03-09T06:06:36.790Z,2.67
2019-03-09T06:09:04.647Z,2.70
2019-03-09T06:11:33.282Z,3.20
2019-03-09T06:14:00.961Z,2.57
2019-03-09T06:16:28.386Z,2.63
2019-03-09T06:18:55.891Z,2.73
2019-03-09T06:21:23.373Z,3.20
2019-03-09T06:23:50.810Z,2.80
2019-03-09T06:26:18.305Z,2.20
2019-03-09T06:28:45.843Z,2.10
2019-03-09T06:31:13.312Z,1.93
2019-03-09T06:33:42.373Z,2.53
2019-03-09T06:36:49.738Z,3.10
2019-03-09T06:39:22.310Z,2.43
2019-03-09T06:42:20.765Z,2.60
2019-03-09T06:44:48.196Z,2.57
2019-03-09T06:47:15.516Z,2.10
2019-03-09T06:50:02.442Z,2.20
2019-03-09T06:52:29.892Z,2.43
2019-03-09T06:54:57.388Z,2.50
2019-03-09T06:57:46.124Z,2.63
2019-03-09T07:00:29.463Z,2.93
2019-03-09T07:02:57.127Z,3.10
2019-03-09T07:05:24.562Z,2.97
2019-03-09T07:07:52.043Z,3.17
2019-03-09T07:10:19.772Z,2.60
2019-03-09T07:12:47.200Z,3.57
2019-03-09T07:15:29.186Z,3.70
2019-03-09T07:18:05.468Z,3.67
2019-03-09T07:20:32.893Z,2.90
2019-03-09T07:23:00.207Z,3.10
2019-03-09T07:25:27.533Z,3.07
2019-03-09T07:28:14.704Z,3.43
2019-03-09T07:30:42.088Z,2.50
2019-03-09T07:33:09.488Z,2.60
2019-03-09T07:35:36.837Z,3.17
2019-03-09T07:38:04.297Z,2.63
2019-03-09T07:40:31.746Z,3.30
2019-03-09T07:42:59.164Z,2.87
2019-03-09T07:45:26.654Z,3.07
2019-03-09T07:47:54.034Z,3.43
2019-03-09T07:50:21.535Z,3.53
2019-03-09T07:52:48.880Z,3.93
2019-03-09T07:55:16.276Z,3.73
2019-03-09T07:57:43.872Z,3.17
2019-03-09T08:00:13.271Z,3.80
2019-03-09T08:02:40.643Z,3.90
2019-03-09T08:05:08.235Z,2.83
2019-03-09T08:07:55.013Z,3.47
2019-03-09T08:10:22.514Z,3.87
2019-03-09T08:13:09.341Z,3.00
2019-03-09T08:15:37.153Z,2.80
2019-03-09T08:18:04.612Z,3.80
2019-03-09T08:20:31.940Z,3.80
2019-03-09T08:22:59.285Z,3.23
2019-03-09T08:25:26.584Z,3.57
2019-03-09T08:27:54.069Z,2.70
2019-03-09T08:30:22.236Z,3.60
2019-03-09T08:32:49.639Z,3.60
2019-03-09T08:35:17.846Z,3.40
2019-03-09T08:37:45.360Z,3.67
2019-03-09T08:40:13.055Z,3.20
2019-03-09T08:42:40.493Z,3.87
2019-03-09T08:45:27.337Z,3.17
2019-03-09T08:47:54.793Z,3.40
2019-03-09T08:50:22.402Z,2.90
2019-03-09T08:52:49.816Z,3.17
2019-03-09T08:55:18.137Z,2.93
2019-03-09T08:58:05.259Z,3.40
2019-03-09T09:00:32.755Z,3.20
2019-03-09T09:03:00.203Z,3.03
2019-03-09T09:05:27.816Z,2.90
2019-03-09T09:07:55.300Z,3.47
2019-03-09T09:10:22.783Z,3.97
2019-03-09T09:13:09.610Z,3.00
2019-03-09T09:15:37.147Z,3.30
2019-03-09T09:18:04.572Z,2.70
2019-03-09T09:20:37.813Z,3.10
2019-03-09T09:23:05.233Z,3.47
2019-03-09T09:25:32.622Z,3.13
2019-03-09T09:28:00.085Z,3.10
2019-03-09T09:30:27.628Z,3.60
2019-03-09T09:32:55.248Z,3.53
2019-03-09T09:35:22.913Z,2.90
2019-03-09T09:38:10.787Z,3.60
2019-03-09T09:40:38.183Z,3.73
2019-03-09T09:43:11.095Z,3.30
2019-03-09T09:45:58.039Z,3.53
2019-03-09T09:48:25.522Z,4.00
2019-03-09T09:50:52.917Z,3.90
2019-03-09T09:53:40.619Z,3.73
2019-03-09T09:56:08.015Z,4.07
2019-03-09T09:58:54.950Z,3.97
2019-03-09T10:01:22.444Z,4.43
2019-03-09T10:03:49.785Z,4.17
2019-03-09T10:06:17.215Z,4.30
2019-03-09T10:08:44.575Z,4.40
2019-03-09T10:11:31.346Z,5.00
2019-03-09T10:14:18.171Z,4.13
2019-03-09T10:16:58.586Z,4.70
2019-03-09T10:19:26.014Z,5.03
2019-03-09T10:21:53.734Z,4.10
2019-03-09T10:24:21.132Z,4.83
2019-03-09T10:26:48.489Z,4.40
2019-03-09T10:29:15.959Z,5.27
2019-03-09T10:31:43.436Z,4.93
2019-03-09T10:34:10.804Z,5.13
2019-03-09T10:36:38.164Z,4.90
2019-03-09T10:39:05.669Z,5.20
2019-03-09T10:41:33.092Z,4.73
2019-03-09T10:44:00.707Z,5.17
2019-03-09T10:46:28.230Z,3.90
2019-03-09T10:49:15.014Z,5.53
2019-03-09T10:51:42.628Z,5.13
2019-03-09T10:54:10.007Z,5.40
2019-03-09T10:56:37.568Z,6.03
2019-03-09T10:59:04.894Z,5.33
2019-03-09T11:01:32.404Z,4.93
2019-03-09T11:04:03.194Z,5.13
2019-03-09T11:06:38.341Z,5.13
2019-03-09T11:09:06.139Z,5.17
2019-03-09T11:11:33.645Z,5.47
2019-03-09T11:14:01.447Z,5.20
2019-03-09T11:16:36.869Z,5.17
2019-03-09T11:19:09.272Z,5.23
2019-03-09T11:21:42.499Z,5.53
2019-03-09T11:24:09.905Z,5.13
2019-03-09T11:26:56.710Z,4.83
2019-03-09T11:29:28.217Z,5.60
2019-03-09T11:31:55.484Z,6.03
2019-03-09T11:34:22.959Z,4.77
2019-03-09T11:36:50.501Z,4.67
2019-03-09T11:39:17.984Z,7.20
2019-03-09T11:41:45.463Z,5.83
2019-03-09T11:44:13.561Z,5.13
2019-03-09T11:47:00.383Z,5.60
2019-03-09T11:49:27.840Z,6.63
2019-03-09T11:51:55.439Z,5.20
2019-03-09T11:54:22.905Z,5.83
2019-03-09T11:57:09.896Z,6.53
2019-03-09T11:59:37.388Z,6.43
2019-03-09T12:02:04.845Z,4.83
2019-03-09T12:04:32.349Z,5.17
2019-03-09T12:07:20.956Z,4.83
2019-03-09T12:10:07.933Z,7.70
2019-03-09T12:15:20.636Z,5.27
2019-03-09T12:17:50.424Z,8.30
2019-03-09T12:20:18.547Z,6.37
2019-03-09T12:22:46.115Z,6.97
2019-03-09T12:25:13.604Z,5.83
2019-03-09T12:27:41.202Z,6.97
2019-03-09T12:30:10.175Z,6.50
2019-03-09T12:32:37.932Z,7.30
2019-03-09T12:35:05.554Z,6.43
2019-03-09T12:37:33.151Z,6.23
2019-03-09T12:40:00.564Z,7.97
2019-03-09T12:42:29.514Z,8.27
2019-03-09T12:44:57.184Z,7.13
2019-03-09T12:47:24.949Z,8.00
2019-03-09T12:49:52.554Z,6.57
2019-03-09T12:52:19.946Z,7.77
2019-03-09T12:54:47.418Z,6.33
2019-03-09T12:57:14.783Z,6.60
2019-03-09T12:59:42.158Z,8.53
2019-03-09T13:02:09.652Z,7.37
2019-03-09T13:04:37.237Z,7.73
2019-03-09T13:07:04.645Z,7.40
2019-03-09T13:09:51.611Z,7.87
2019-03-09T13:12:19.015Z,7.00
2019-03-09T13:14:46.666Z,9.20
2019-03-09T13:17:14.115Z,8.23
2019-03-09T13:19:41.607Z,7.57
2019-03-09T13:22:09.045Z,8.23
2019-03-09T13:24:39.669Z,8.70
2019-03-09T13:27:07.368Z,8.77
2019-03-09T13:29:35.208Z,7.93
2019-03-09T13:32:02.624Z,8.87
2019-03-09T13:34:30.394Z,9.13
2019-03-09T13:36:57.717Z,8.00
2019-03-09T13:39:25.252Z,7.33
2019-03-09T13:42:12.275Z,10.37
2019-03-09T13:44:39.709Z,8.20
2019-03-09T13:47:07.306Z,9.67
2019-03-09T13:49:34.819Z,7.50
2019-03-09T13:52:02.417Z,8.17
2019-03-09T13:54:29.877Z,7.90
2019-03-09T13:56:57.489Z,4.00
2019-03-09T13:59:24.960Z,7.20
2019-03-09T14:01:52.396Z,7.30
2019-03-09T14:04:39.585Z,6.93
2019-03-09T14:07:17.836Z,6.50
2019-03-09T14:10:04.950Z,6.80
2019-03-09T14:12:32.473Z,8.57
2019-03-09T14:14:59.961Z,8.70
2019-03-09T14:17:27.439Z,7.70
2019-03-09T14:19:55.194Z,7.00
2019-03-09T14:22:22.523Z,6.07
2019-03-09T14:24:50.076Z,9.03
2019-03-09T14:27:17.559Z,4.70
2019-03-09T14:30:04.749Z,2.90
2019-03-09T14:32:32.170Z,2.10
2019-03-09T14:35:18.944Z,2.27
2019-03-09T14:37:46.423Z,1.70
2019-03-09T14:40:14.016Z,2.20
2019-03-09T14:42:41.423Z,1.50
2019-03-09T14:45:12.022Z,2.27
2019-03-09T14:47:39.506Z,1.77
2019-03-09T14:50:07.159Z,1.57
2019-03-09T14:52:54.082Z,2.23
2019-03-09T14:55:21.464Z,2.77
2019-03-09T14:58:08.338Z,2.10
2019-03-09T15:00:35.928Z,2.23
2019-03-09T15:03:03.376Z,2.37
2019-03-09T15:05:30.946Z,2.30
2019-03-09T15:07:58.359Z,3.57
2019-03-09T15:10:25.706Z,2.30
2019-03-09T15:12:53.079Z,3.00
2019-03-09T15:15:20.524Z,2.83
2019-03-09T15:17:47.944Z,3.37
2019-03-09T15:20:15.301Z,2.50
2019-03-09T15:22:42.785Z,2.27
2019-03-09T15:25:10.592Z,2.77
2019-03-09T15:27:38.112Z,2.30
2019-03-09T15:30:06.903Z,3.00
2019-03-09T15:32:34.236Z,3.80
2019-03-09T15:35:01.633Z,3.67
2019-03-09T15:37:29.102Z,2.97
2019-03-09T15:39:56.707Z,2.70
2019-03-09T15:42:44.567Z,2.73
2019-03-09T15:45:11.975Z,3.90
2019-03-09T15:47:58.902Z,3.60
2019-03-09T15:50:45.824Z,3.40
2019-03-09T15:53:13.367Z,3.63
2019-03-09T15:55:40.782Z,3.47
2019-03-09T15:58:08.163Z,2.97
2019-03-09T16:00:54.933Z,2.43
2019-03-09T16:03:23.192Z,1.77
2019-03-09T16:06:10.220Z,2.43
2019-03-09T16:08:37.662Z,2.33
2019-03-09T16:11:05.228Z,2.03
2019-03-09T16:13:32.740Z,2.00
2019-03-09T16:16:00.430Z,2.30
2019-03-09T16:18:27.849Z,2.83
2019-03-09T16:20:55.241Z,2.63
2019-03-09T16:23:22.657Z,2.47
2019-03-09T16:25:50.232Z,2.60
2019-03-09T16:28:17.627Z,2.33
2019-03-09T16:30:45.024Z,2.83
2019-03-09T16:33:12.459Z,2.30
2019-03-09T16:35:39.896Z,2.83
2019-03-09T16:38:26.752Z,2.10
2019-03-09T16:40:54.218Z,2.20
2019-03-09T16:43:43.106Z,2.30
2019-03-09T16:48:55.133Z,2.97
2019-03-09T16:51:22.563Z,2.77
2019-03-09T16:53:50.176Z,2.80
2019-03-09T16:56:17.553Z,3.00
2019-03-09T16:59:04.447Z,2.43
2019-03-09T17:01:31.893Z,2.43
2019-03-09T17:03:59.318Z,3.10
2019-03-09T17:06:26.768Z,2.83
2019-03-09T17:08:54.076Z,3.07
2019-03-09T17:11:21.495Z,3.63
2019-03-09T17:13:49.084Z,2.47
2019-03-09T17:16:16.536Z,2.70
2019-03-09T17:18:43.919Z,3.93
2019-03-09T17:21:11.267Z,2.80
2019-03-09T17:23:38.623Z,4.13
2019-03-09T17:26:25.428Z,3.73
2019-03-09T17:28:52.795Z,2.87
2019-03-09T17:31:39.601Z,3.10
2019-03-09T17:34:07.027Z,2.77
2019-03-09T17:36:34.351Z,3.20
2019-03-09T17:39:01.815Z,4.47
2019-03-09T17:41:29.305Z,2.50
2019-03-09T17:43:56.667Z,3.60
2019-03-09T17:46:24.207Z,3.57
2019-03-09T17:48:51.731Z,2.80
2019-03-09T17:51:19.159Z,2.50
2019-03-09T17:53:46.681Z,2.53
2019-03-09T17:56:13.970Z,2.20
2019-03-09T17:58:41.327Z,2.30
2019-03-09T18:01:28.223Z,2.50
2019-03-09T18:03:55.681Z,2.33
2019-03-09T18:06:23.000Z,3.47
2019-03-09T18:08:50.417Z,3.23
2019-03-09T18:11:17.938Z,2.17
2019-03-09T18:13:45.330Z,2.10
2019-03-09T18:16:12.806Z,2.87
2019-03-09T18:18:40.240Z,2.27
2019-03-09T18:21:07.636Z,2.43
2019-03-09T18:23:35.123Z,2.40
2019-03-09T18:26:02.507Z,2.03
2019-03-09T18:28:29.879Z,1.97
2019-03-09T18:31:01.759Z,2.13
2019-03-09T18:33:29.281Z,1.70
2019-03-09T18:36:16.166Z,2.40
2019-03-09T18:38:51.741Z,1.87
2019-03-09T18:41:19.297Z,2.47
2019-03-09T18:43:50.053Z,2.30
2019-03-09T18:46:17.505Z,2.30
2019-03-09T18:49:04.694Z,3.30
2019-03-09T18:51:32.080Z,2.57
2019-03-09T18:53:59.407Z,2.07
2019-03-09T18:56:26.930Z,2.53
2019-03-09T18:58:56.180Z,2.67
2019-03-09T19:01:32.415Z,3.30
2019-03-09T19:03:59.920Z,3.07
2019-03-09T19:06:46.957Z,2.60
2019-03-09T19:09:14.460Z,3.97
2019-03-09T19:11:41.825Z,2.27
2019-03-09T19:14:09.368Z,2.50
2019-03-09T19:16:36.794Z,3.77
2019-03-09T19:19:04.148Z,2.53
2019-03-09T19:21:31.623Z,2.47
2019-03-09T19:23:59.105Z,3.00
2019-03-09T19:26:26.612Z,3.33
2019-03-09T19:28:54.107Z,2.67
2019-03-09T19:31:21.732Z,2.60
2019-03-09T19:33:49.278Z,4.23
2019-03-09T19:36:16.623Z,4.00
2019-03-09T19:38:44.053Z,2.90
2019-03-09T19:41:11.556Z,2.53
2019-03-09T19:43:38.941Z,3.30
2019-03-09T19:46:06.532Z,4.80
2019-03-09T19:48:33.873Z,4.23
2019-03-09T19:51:01.314Z,4.50
2019-03-09T19:53:28.987Z,3.80
2019-03-09T19:55:56.465Z,3.47
2019-03-09T19:58:24.161Z,4.47
2019-03-09T20:00:51.573Z,3.40
2019-03-09T20:03:19.047Z,2.90
2019-03-09T20:05:46.575Z,2.80
2019-03-09T20:08:14.142Z,2.27
2019-03-09T20:10:41.747Z,2.80
2019-03-09T20:13:09.121Z,3.73
2019-03-09T20:15:36.593Z,2.80
2019-03-09T20:18:04.131Z,2.70
2019-03-09T20:20:31.530Z,2.57
2019-03-09T20:22:59.016Z,2.57
2019-03-09T20:25:28.450Z,2.70
2019-03-09T20:27:55.759Z,2.50
2019-03-09T20:30:42.647Z,2.83
2019-03-09T20:33:10.157Z,2.90
2019-03-09T20:35:37.588Z,3.07
2019-03-09T20:38:05.084Z,3.47
2019-03-09T20:40:32.594Z,3.20
2019-03-09T20:43:00.097Z,2.77
2019-03-09T20:45:27.574Z,3.07
2019-03-09T20:47:55.106Z,2.43
2019-03-09T20:50:22.660Z,2.90
2019-03-09T20:53:09.638Z,3.50
2019-03-09T20:55:37.105Z,2.83
2019-03-09T20:58:04.494Z,2.93
2019-03-09T21:00:52.759Z,3.07
2019-03-09T21:06:05.141Z,3.43
2019-03-09T21:08:32.587Z,3.20
2019-03-09T21:11:03.879Z,3.33
2019-03-09T21:13:29.535Z,3.43
2019-03-09T21:15:57.139Z,3.00
2019-03-09T21:18:24.736Z,3.23
2019-03-09T21:20:52.228Z,3.63
2019-03-09T21:23:19.560Z,3.50
2019-03-09T21:26:06.504Z,3.67
2019-03-09T21:28:53.339Z,2.53
2019-03-09T21:31:20.867Z,2.60
2019-03-09T21:33:48.237Z,2.33
2019-03-09T21:36:15.820Z,2.30
2019-03-09T21:38:43.285Z,3.10
2019-03-09T21:41:10.789Z,3.00
2019-03-09T21:43:38.196Z,2.03
2019-03-09T21:46:05.639Z,2.80
2019-03-09T21:48:32.965Z,2.80
2019-03-09T21:51:00.500Z,2.40
2019-03-09T21:53:47.299Z,2.30
2019-03-09T21:56:34.092Z,3.30
2019-03-09T21:59:01.639Z,2.90
2019-03-09T22:01:29.180Z,3.10
2019-03-09T22:04:16.131Z,2.83
2019-03-09T22:06:43.614Z,2.87
2019-03-09T22:09:11.062Z,2.40
2019-03-09T22:11:57.847Z,2.87
2019-03-09T22:14:25.306Z,3.07
2019-03-09T22:16:56.478Z,3.60
2019-03-09T22:19:22.349Z,2.23
2019-03-09T22:21:49.799Z,2.60
2019-03-09T22:24:17.358Z,2.77
2019-03-09T22:26:44.756Z,2.70
2019-03-09T22:29:31.599Z,2.50
2019-03-09T22:32:00.770Z,3.70
2019-03-09T22:34:28.217Z,3.00
2019-03-09T22:36:55.550Z,3.10
2019-03-09T22:39:22.981Z,2.80
2019-03-09T22:41:50.428Z,2.17
2019-03-09T22:44:18.735Z,2.40
2019-03-09T22:47:11.568Z,2.67
2019-03-09T22:49:38.231Z,3.50
2019-03-09T22:52:04.482Z,2.60
2019-03-09T22:54:32.053Z,3.30
2019-03-09T22:56:59.525Z,2.40
2019-03-09T22:59:27.011Z,2.73
2019-03-09T23:01:54.493Z,2.53
2019-03-09T23:04:21.960Z,1.80
2019-03-09T23:07:08.843Z,2.23
2019-03-09T23:09:36.300Z,2.40
2019-03-09T23:12:03.681Z,3.37
2019-03-09T23:14:31.128Z,2.90
2019-03-09T23:16:58.522Z,3.07
2019-03-09T23:19:25.851Z,3.00
2019-03-09T23:21:53.327Z,3.70
2019-03-09T23:24:20.645Z,2.97
2019-03-09T23:26:48.148Z,2.60
2019-03-09T23:29:15.543Z,3.23
2019-03-09T23:31:42.891Z,2.90
2019-03-09T23:34:10.338Z,3.57
2019-03-09T23:36:57.120Z,2.60
2019-03-09T23:39:43.891Z,2.90
2019-03-09T23:42:11.342Z,2.60
2019-03-09T23:44:58.243Z,3.20
2019-03-09T23:47:38.698Z,3.23
2019-03-09T23:50:07.392Z,3.70
2019-03-09T23:52:34.710Z,3.13
2019-03-09T23:55:02.097Z,3.03
2019-03-09T23:57:49.003Z,3.47
